Sydney Kingsford Smith International Airport
YSSY : now visible

Airfield :











YOU CAN JOIN US ON...

 
LOGIN :

Register | Disclaimer

   EN    FR    IT 

 









Legend :    VFR   Marginal VFR   IFR   Intensive IFR   Very Intensive IFR
Visi :
Ceiling :
>= 8 km
>= 3000ft
5 to 8 km
1000 to 3000 ft
1500m to 5 km
500 to 1000 ft
800 to 1500m
200 to 500 ft
< 800m
< 200 ft
Symbols :   Thunderstorms  Fog  Heavy snow  Heavy precipitations  Wind > 20 kt






- Airport Elevation : 21 ft
- IATA code : SYD


YSSY - Sydney Kingsford Smith International

CURRENT METAR :
  • 160700Z 14014KT 9999 SCT035 SCT065 BKN250 18/10 Q1021

EXPIRED METARs :
  • 160630Z 14014KT 9999 SCT035 SCT065 BKN250 19/10 Q1021
  • 160600Z 15015KT 9999 SCT035 SCT060 BKN250 19/10 Q1021
  • 160530Z 15015KT 9999 SCT035 BKN060 BKN250 19/11 Q1021
  • 160500Z 16016KT 9999 BKN035 BKN250 19/11 Q1021
  • 160430Z 16016KT 9999 SCT032 BKN040 BKN250 19/12 Q1021

TAF TAF YSSY
Valid from the 16 at 06:00 until the 17 at 12:00 UTC


160500Z 1606/1712 15015KT 9999 BKN035
FM160900 16010KT 9999 SCT040
FM161800 30008KT 9999 SCT040
FM170000 10008KT 9999 -SHRA SCT035 SCT050
FM170700 03007KT 9999 NSW SCT035
YMMM FIR / Oceania



MET'MAP, your aeronautical weather chart ! - Copyright ORBIFLY December 2007 - Disclaimer

ORBIFLY MET'MAP TEAM :

Programming & Development : Alexandra Zaïnal
Concept & original design : Baudouin d'Aumeries
Assistance for programming : Marc-Olivier Méhu
Technical & hardware support : Manuel Goepfert

Contact : metmap@orbifly.com




SOURCES & CREDITS :

   NOAA       Earth
Advisory